Time;durP1;ratioP1;P1;durP2;ratioP2;P2;SDS_P1;SDS_P2;PMS_P1;PMS_P2;Temp;Humidity;BMP_temperature;BMP_pressure;BME280_temperature;BME280_humidity;BME280_pressure;Samples;Min_cycle;Max_cycle;Signal;HPM_P1;HPM_P2
2022/05/22 00:01:07;;;;;;;4.20;3.00;;;;;;;14.62;59.53;96866.12;109979;1250;59721;-74
2022/05/22 00:03:37;;;;;;;4.00;3.30;;;;;;;14.58;60.13;96864.24;109977;1250;59692;-69
2022/05/22 00:06:06;;;;;;;3.70;2.60;;;;;;;14.55;60.07;96866.48;109959;1250;71515;-75
2022/05/22 00:08:36;;;;;;;3.00;2.70;;;;;;;14.52;59.77;96869.21;109813;1250;68448;-72
2022/05/22 00:11:06;;;;;;;4.40;3.70;;;;;;;14.56;60.66;96866.92;109997;1250;68890;-67
2022/05/22 00:13:36;;;;;;;4.50;3.70;;;;;;;14.82;60.15;96866.64;109851;1250;60028;-70
2022/05/22 00:18:54;;;;;;;5.20;3.50;;;;;;;15.25;58.23;96855.88;109964;1250;71519;-71
2022/05/22 00:21:24;;;;;;;3.80;2.80;;;;;;;15.36;57.91;96856.48;109862;1250;67814;-72
2022/05/22 00:23:54;;;;;;;3.40;2.70;;;;;;;15.49;57.42;96852.91;109961;1250;68659;-70
2022/05/22 00:26:24;;;;;;;3.90;2.80;;;;;;;15.56;56.94;96854.67;109769;1250;59724;-75
2022/05/22 00:28:54;;;;;;;2.90;2.60;;;;;;;15.56;56.99;96855.36;109772;1250;59691;-74
2022/05/22 00:31:23;;;;;;;3.10;2.80;;;;;;;15.59;56.85;96855.58;109702;1251;70666;-72
2022/05/22 00:33:54;;;;;;;4.90;2.90;;;;;;;15.61;56.81;96850.49;109965;1250;68649;-75
2022/05/22 00:36:24;;;;;;;5.00;2.80;;;;;;;15.62;56.57;96847.34;109905;1250;69398;-72
2022/05/22 00:38:54;;;;;;;4.60;3.10;;;;;;;15.61;56.57;96857.46;109722;1251;59737;-68
2022/05/22 00:41:24;;;;;;;3.20;2.70;;;;;;;15.60;56.72;96858.27;109709;1250;59714;-78
2022/05/22 00:43:55;;;;;;;3.30;2.80;;;;;;;15.60;56.65;96849.81;109747;1250;70570;-70
2022/05/22 00:46:25;;;;;;;4.80;2.90;;;;;;;15.62;56.69;96850.58;109933;1250;67826;-72
2022/05/22 00:49:08;;;;;;;4.30;3.20;;;;;;;15.65;56.41;96847.82;109973;1250;68490;-74
2022/05/22 00:52:07;;;;;;;3.80;2.60;;;;;;;15.66;56.40;96852.11;109695;1250;59813;-78
2022/05/22 00:54:52;;;;;;;4.40;3.00;;;;;;;15.62;56.39;96851.05;109952;1250;59684;-74
2022/05/22 00:57:41;;;;;;;4.40;2.70;;;;;;;15.60;56.48;96850.17;109919;1250;71408;-74
2022/05/22 01:00:18;;;;;;;3.10;2.70;;;;;;;15.59;56.48;96855.94;109950;1250;68760;-77
2022/05/22 01:05:50;;;;;;;3.30;2.50;;;;;;;15.57;56.73;96853.14;109707;1250;59728;-74
2022/05/22 01:08:20;;;;;;;3.80;2.40;;;;;;;15.54;56.55;96854.71;109946;1250;59646;-78
2022/05/22 01:11:12;;;;;;;5.80;3.10;;;;;;;15.51;56.94;96859.57;109871;1250;70758;-75
2022/05/22 01:13:52;;;;;;;3.90;2.90;;;;;;;15.46;56.84;96855.55;109861;1251;68683;-71
2022/05/22 01:16:22;;;;;;;;;;;;;;;15.39;57.38;96854.42;110003;1250;68665;-78
2022/05/22 01:18:54;;;;;;;5.60;2.50;;;;;;;15.32;57.54;96853.39;110003;1250;59718;-76
2022/05/22 01:21:34;;;;;;;3.80;2.90;;;;;;;15.27;57.66;96853.92;109964;1250;59769;-77
2022/05/22 01:24:05;;;;;;;3.90;2.60;;;;;;;15.21;58.03;96857.99;109979;1250;71543;-76
2022/05/22 01:26:37;;;;;;;3.80;2.60;;;;;;;15.16;57.60;96861.90;109811;1250;68600;-78
2022/05/22 01:29:20;;;;;;;3.20;2.50;;;;;;;15.06;58.10;96869.55;109922;1250;67597;-78
2022/05/22 01:31:50;;;;;;;;;;;;;;;14.97;58.72;96871.98;109968;1250;59767;-74
2022/05/22 01:34:21;;;;;;;3.10;2.40;;;;;;;14.82;59.37;96870.84;109843;1250;59689;-78
2022/05/22 01:36:52;;;;;;;4.50;3.00;;;;;;;14.72;59.70;96872.34;109893;1250;71529;-74
2022/05/22 01:39:24;;;;;;;3.10;2.20;;;;;;;14.63;60.17;96869.05;109939;1250;68665;-78
2022/05/22 01:41:57;;;;;;;4.00;2.80;;;;;;;14.55;59.39;96867.92;109903;1249;69412;-78
2022/05/22 01:44:27;;;;;;;2.90;2.40;;;;;;;14.48;59.85;96871.34;110019;1250;59680;-70
2022/05/22 01:46:57;;;;;;;3.90;2.40;;;;;;;14.45;58.75;96869.33;109787;1250;59748;-76
2022/05/22 01:49:30;;;;;;;4.00;2.50;;;;;;;14.45;58.88;96869.40;110009;1250;70579;-73
2022/05/22 01:52:02;;;;;;;3.70;2.10;;;;;;;14.45;59.25;96869.66;110009;1250;68480;-80
2022/05/22 01:54:32;;;;;;;2.80;2.30;;;;;;;14.47;58.44;96870.95;109924;1249;67517;-76
2022/05/22 01:57:03;;;;;;;2.50;2.20;;;;;;;14.49;57.91;96870.00;110010;1250;59688;-75
2022/05/22 01:59:34;;;;;;;4.60;3.20;;;;;;;14.55;58.63;96873.20;109845;1250;59689;-70
2022/05/22 02:02:21;;;;;;;5.70;3.10;;;;;;;14.59;58.84;96874.31;109932;1250;71864;-69
2022/05/22 02:04:52;;;;;;;4.00;2.50;;;;;;;14.62;58.23;96876.84;109858;1250;67934;-72
2022/05/22 02:10:11;;;;;;;3.90;2.50;;;;;;;14.63;58.62;96870.27;109907;1250;59741;-74
2022/05/22 02:12:46;;;;;;;3.30;2.40;;;;;;;14.62;58.49;96875.63;109869;1250;59736;-68
2022/05/22 02:15:18;;;;;;;3.90;2.60;;;;;;;14.61;58.93;96870.98;109936;1250;71542;-72
2022/05/22 02:17:49;;;;;;;4.00;2.60;;;;;;;14.61;59.31;96875.38;109826;1250;68439;-77
2022/05/22 02:20:21;;;;;;;4.70;2.90;;;;;;;14.61;59.18;96872.59;109792;1250;69316;-75
2022/05/22 02:22:57;;;;;;;3.90;3.10;;;;;;;14.61;59.35;96870.63;109936;1250;59689;-75
2022/05/22 02:25:34;;;;;;;4.70;3.20;;;;;;;14.61;59.45;96873.48;109688;1252;60088;-70
2022/05/22 02:28:08;;;;;;;3.80;2.60;;;;;;;14.58;59.48;96872.98;109756;1252;70812;-71
2022/05/22 02:30:43;;;;;;;3.40;2.50;;;;;;;14.57;59.56;96874.39;109952;1250;68648;-72
2022/05/22 02:33:14;;;;;;;4.00;2.60;;;;;;;14.55;58.90;96875.11;109869;1251;68546;-79
2022/05/22 02:35:51;;;;;;;3.60;2.80;;;;;;;14.54;58.51;96878.69;109652;1250;59727;-77
2022/05/22 02:38:27;;;;;;;3.90;3.10;;;;;;;14.53;58.86;96878.23;109985;1250;59625;-72
2022/05/22 02:40:58;;;;;;;2.90;2.60;;;;;;;14.54;58.68;96876.95;110038;1250;70777;-75
2022/05/22 02:43:28;;;;;;;3.80;2.70;;;;;;;14.52;58.76;96878.48;109812;1250;68589;-74
2022/05/22 02:45:59;;;;;;;3.10;2.50;;;;;;;14.53;59.01;96879.17;109886;1250;68645;-76
2022/05/22 02:48:30;;;;;;;3.70;2.70;;;;;;;14.51;58.67;96882.26;109816;1252;60163;-75
2022/05/22 02:51:03;;;;;;;4.40;2.60;;;;;;;14.48;59.95;96888.70;109873;1250;59663;-78
2022/05/22 02:53:34;;;;;;;2.80;2.20;;;;;;;14.42;59.11;96889.27;109953;1250;71424;-77
2022/05/22 02:56:27;;;;;;;3.70;2.90;;;;;;;14.33;59.90;96887.68;109975;1250;68460;-76
2022/05/22 02:59:05;;;;;;;4.80;2.90;;;;;;;14.23;60.08;96881.63;109881;1250;68633;-76
2022/05/22 03:01:46;;;;;;;3.80;3.10;;;;;;;14.15;60.39;96886.23;109935;1250;59755;-74
2022/05/22 03:04:17;;;;;;;4.60;3.20;;;;;;;14.08;60.69;96883.98;109842;1251;59736;-78
2022/05/22 03:06:48;;;;;;;3.50;3.00;;;;;;;13.99;61.78;96884.32;109975;1249;71979;-77
2022/05/22 03:09:21;;;;;;;4.60;2.90;;;;;;;13.89;61.27;96879.49;110033;1250;68614;-74
2022/05/22 03:11:53;;;;;;;2.80;2.30;;;;;;;13.80;61.71;96886.61;109891;1252;68616;-72
2022/05/22 03:14:23;;;;;;;3.70;2.60;;;;;;;13.75;61.30;96885.48;109916;1250;59714;-79
2022/05/22 03:16:53;;;;;;;4.30;3.00;;;;;;;13.69;61.14;96886.89;109986;1250;59671;-78
2022/05/22 03:19:31;;;;;;;3.10;2.40;;;;;;;13.66;61.44;96886.48;109900;1250;71522;-76
2022/05/22 03:22:01;;;;;;;4.50;3.00;;;;;;;13.66;61.28;96889.11;109993;1251;67886;-77
2022/05/22 03:24:33;;;;;;;4.80;2.70;;;;;;;13.63;61.47;96891.37;109959;1250;69447;-72
2022/05/22 03:27:07;;;;;;;3.40;2.90;;;;;;;13.58;62.09;96889.34;109832;1250;59767;-74
2022/05/22 03:29:39;;;;;;;2.50;2.30;;;;;;;13.53;61.96;96895.81;109715;1251;59698;-76
2022/05/22 03:32:09;;;;;;;3.70;2.80;;;;;;;13.47;62.12;96897.19;109869;1251;71519;-77
2022/05/22 03:34:42;;;;;;;3.20;2.50;;;;;;;13.43;61.48;96900.94;109867;1252;67921;-76
2022/05/22 03:37:14;;;;;;;3.10;2.70;;;;;;;13.41;62.32;96899.53;109873;1250;69668;-76
2022/05/22 03:39:44;;;;;;;4.10;2.70;;;;;;;13.42;62.27;96903.42;109869;1253;59697;-74
2022/05/22 03:42:14;;;;;;;4.20;2.80;;;;;;;13.46;63.30;96904.14;109931;1250;59628;-77
2022/05/22 03:44:44;;;;;;;3.60;2.60;;;;;;;13.46;63.63;96908.20;109943;1252;71649;-74
2022/05/22 03:47:15;;;;;;;3.80;2.70;;;;;;;13.48;63.69;96907.80;109736;1250;68228;-77
2022/05/22 03:50:04;;;;;;;3.60;2.70;;;;;;;13.52;61.98;96909.23;109897;1250;68922;-79
2022/05/22 03:52:36;;;;;;;5.00;2.80;;;;;;;13.55;61.60;96914.03;109940;1250;59730;-71
2022/05/22 03:55:10;;;;;;;4.50;2.50;;;;;;;13.56;62.69;96911.23;109785;1250;59656;-72
2022/05/22 03:57:40;;;;;;;4.40;2.80;;;;;;;13.57;62.14;96913.48;109834;1250;69976;-72
2022/05/22 04:00:10;;;;;;;;;;;;;;;13.58;62.18;96910.55;109713;1251;68371;-74
2022/05/22 04:02:46;;;;;;;3.80;3.00;;;;;;;13.59;62.64;96910.31;109828;1250;69324;-73
2022/05/22 04:05:17;;;;;;;3.90;2.60;;;;;;;13.60;62.19;96914.02;109852;1251;59759;-77
2022/05/22 04:07:48;;;;;;;3.20;2.80;;;;;;;13.63;61.76;96913.09;109873;1251;59733;-72
2022/05/22 04:10:26;;;;;;;3.70;2.60;;;;;;;13.67;61.55;96919.00;109918;1250;71342;-72
2022/05/22 04:12:55;;;;;;;;;;;;;;;13.70;61.50;96923.05;109963;1250;67568;-73
2022/05/22 04:15:25;;;;;;;3.50;2.90;;;;;;;13.74;60.88;96921.66;109894;1250;69406;-75
2022/05/22 04:17:56;;;;;;;5.50;3.10;;;;;;;13.85;60.78;96922.96;109918;1250;59773;-72
2022/05/22 04:20:29;;;;;;;3.30;2.40;;;;;;;13.97;60.62;96922.66;109971;1250;59667;-75
2022/05/22 04:26:06;;;;;;;4.20;2.70;;;;;;;14.21;59.52;96921.26;109794;1250;67696;-74
2022/05/22 04:28:36;;;;;;;2.70;2.10;;;;;;;14.26;58.54;96923.06;109713;1252;69474;-72
2022/05/22 04:31:16;;;;;;;2.90;2.50;;;;;;;14.32;58.15;96921.87;109676;1253;59692;-76
2022/05/22 04:34:06;;;;;;;5.00;2.70;;;;;;;14.38;57.42;96926.95;109815;1250;59741;-72
2022/05/22 04:36:37;;;;;;;3.80;2.40;;;;;;;14.46;56.96;96927.99;109814;1252;71546;-73
2022/05/22 04:39:07;;;;;;;3.10;2.30;;;;;;;14.56;56.63;96931.64;109852;1250;68587;-74
2022/05/22 04:41:37;;;;;;;4.50;2.50;;;;;;;14.64;55.82;96935.24;109802;1253;67605;-69
2022/05/22 04:44:06;;;;;;;3.90;2.40;;;;;;;14.69;55.83;96937.88;109833;1250;59740;-75
2022/05/22 04:46:37;;;;;;;4.40;2.50;;;;;;;14.76;55.50;96935.12;109617;1251;59684;-74
2022/05/22 04:49:06;;;;;;;4.30;2.30;;;;;;;14.79;54.45;96935.48;109694;1253;70808;-74
2022/05/22 04:51:35;;;;;;;3.40;2.30;;;;;;;14.93;54.43;96935.54;109835;1250;66805;-70
2022/05/22 04:54:11;;;;;;;3.60;1.70;;;;;;;15.06;54.15;96940.79;109922;1250;69527;-75
2022/05/22 04:56:44;;;;;;;2.70;2.20;;;;;;;15.06;52.62;96941.48;109930;1250;59757;-73
2022/05/22 04:59:17;;;;;;;3.30;1.90;;;;;;;15.19;53.15;96943.12;109805;1250;60132;-75
2022/05/22 05:01:46;;;;;;;2.70;2.10;;;;;;;15.37;53.31;96944.87;109701;1253;70807;-73
2022/05/22 05:04:24;;;;;;;4.80;2.30;;;;;;;15.48;52.16;96943.25;109919;1250;67767;-73
2022/05/22 05:07:06;;;;;;;4.20;2.30;;;;;;;15.65;51.37;96941.08;109815;1250;69483;-73
2022/05/22 05:09:48;;;;;;;3.50;2.80;;;;;;;15.95;50.98;96935.56;109911;1250;59765;-75
2022/05/22 05:12:41;;;;;;;2.90;1.80;;;;;;;16.17;49.65;96929.95;109831;1250;59757;-75
2022/05/22 05:15:24;;;;;;;3.90;2.30;;;;;;;16.42;49.80;96930.42;109704;1250;71637;-78
2022/05/22 05:18:22;;;;;;;3.70;1.90;;;;;;;16.58;49.24;96927.27;109704;1253;68594;-75
2022/05/22 05:20:53;;;;;;;3.00;1.90;;;;;;;16.71;48.55;96925.77;109716;1251;69222;-73
2022/05/22 05:23:23;;;;;;;3.90;1.60;;;;;;;17.05;48.83;96932.53;109708;1253;59829;-74
2022/05/22 05:26:08;;;;;;;2.80;1.60;;;;;;;17.32;48.26;96933.84;109975;1250;59619;-73
2022/05/22 05:28:37;;;;;;;3.10;1.80;;;;;;;17.43;47.51;96939.05;109923;1250;70628;-76
2022/05/22 05:31:06;;;;;;;4.70;2.10;;;;;;;17.49;46.97;96937.83;109790;1252;68687;-76
2022/05/22 05:33:37;;;;;;;2.60;1.80;;;;;;;17.58;47.08;96939.38;109942;1250;69296;-73
2022/05/22 05:36:28;;;;;;;3.50;2.10;;;;;;;17.73;47.14;96935.05;109845;1250;59696;-76
2022/05/22 05:39:06;;;;;;;2.60;2.10;;;;;;;17.52;45.60;96935.21;109976;1250;60091;-76
2022/05/22 05:41:49;;;;;;;3.40;2.20;;;;;;;17.34;46.36;96941.95;109671;1250;71612;-77
2022/05/22 05:44:19;;;;;;;4.00;2.30;;;;;;;17.48;46.52;96944.11;110003;1251;67937;-79
2022/05/22 05:46:51;;;;;;;3.20;2.40;;;;;;;17.72;46.39;96946.77;109818;1249;68664;-74
2022/05/22 05:49:22;;;;;;;2.90;1.80;;;;;;;18.02;45.67;96942.86;109763;1251;59752;-77
2022/05/22 05:52:05;;;;;;;3.60;1.70;;;;;;;18.18;44.66;96944.89;109860;1251;59653;-76
2022/05/22 05:54:59;;;;;;;3.10;2.10;;;;;;;18.61;44.52;96941.20;109923;1250;71568;-77
2022/05/22 05:57:46;;;;;;;3.60;2.60;;;;;;;18.68;44.28;96948.15;110000;1250;68435;-77
2022/05/22 06:00:22;;;;;;;3.10;2.30;;;;;;;18.81;42.47;96950.86;109746;1250;68661;-71
2022/05/22 06:02:52;;;;;;;3.50;2.10;;;;;;;18.94;42.52;96949.14;109777;1250;59695;-72
2022/05/22 06:05:21;;;;;;;4.00;1.90;;;;;;;19.16;42.30;96952.34;109843;1251;59659;-72
2022/05/22 06:07:52;;;;;;;4.80;2.10;;;;;;;19.38;42.26;96955.86;109674;1250;69859;-70
2022/05/22 06:10:25;;;;;;;2.30;1.60;;;;;;;19.55;40.87;96956.52;109947;1250;66828;-74
2022/05/22 06:13:15;;;;;;;3.60;1.70;;;;;;;19.85;40.97;96956.33;109891;1250;69460;-76
2022/05/22 06:15:50;;;;;;;2.50;1.60;;;;;;;20.15;40.62;96954.80;109769;1251;60038;-68
2022/05/22 06:18:20;;;;;;;2.90;1.60;;;;;;;20.37;39.78;96952.52;109729;1251;59663;-71
2022/05/22 06:20:51;;;;;;;2.30;1.70;;;;;;;20.11;38.86;96950.83;109815;1252;70601;-74
2022/05/22 06:23:24;;;;;;;2.90;1.60;;;;;;;20.19;38.60;96949.84;110049;1250;68121;-70
2022/05/22 06:26:19;;;;;;;2.00;1.50;;;;;;;20.26;39.43;96947.94;109628;1250;684160;-76
2022/05/22 06:29:01;;;;;;;2.80;1.90;;;;;;;19.69;39.81;96952.47;110050;1250;59703;-74
2022/05/22 06:31:59;;;;;;;3.30;1.50;;;;;;;19.17;40.00;96959.66;109322;1253;59764;-75
2022/05/22 06:34:49;;;;;;;2.60;1.50;;;;;;;18.70;41.36;96960.48;110158;1250;70927;-71
2022/05/22 06:37:44;;;;;;;3.10;1.90;;;;;;;18.71;41.01;96961.70;109866;1250;67890;-75
2022/05/22 06:40:32;;;;;;;3.80;1.70;;;;;;;18.59;41.14;96958.48;110123;1250;69073;-72
2022/05/22 06:43:20;;;;;;;2.20;1.60;;;;;;;18.47;41.62;96961.46;109937;1250;59760;-72
2022/05/22 06:46:08;;;;;;;3.20;2.10;;;;;;;18.57;41.15;96957.87;109922;1250;59751;-77
2022/05/22 06:48:58;;;;;;;3.20;1.70;;;;;;;18.63;41.53;96958.59;110142;1250;69616;-70
2022/05/22 06:51:46;;;;;;;2.90;2.10;;;;;;;18.39;41.59;96956.20;110157;1250;67804;-74
2022/05/22 06:54:40;;;;;;;4.10;2.20;;;;;;;18.34;42.29;96952.48;110139;1250;69422;-78
2022/05/22 06:57:39;;;;;;;1.90;1.70;;;;;;;18.13;42.95;96954.80;110016;1250;59673;-75
2022/05/22 07:00:18;;;;;;;3.40;2.00;;;;;;;17.91;42.64;96951.65;110107;1250;59618;-73
2022/05/22 07:03:05;;;;;;;2.00;1.60;;;;;;;18.26;42.31;96947.67;109974;1250;72330;-72
2022/05/22 07:05:47;;;;;;;2.20;1.60;;;;;;;18.64;41.24;96949.33;110154;1249;67892;-72
2022/05/22 07:08:35;;;;;;;4.80;2.20;;;;;;;18.82;40.92;96951.50;110132;1250;68723;-70
2022/05/22 07:11:41;;;;;;;2.30;1.60;;;;;;;19.08;40.48;96943.09;110180;1250;59666;-73
2022/05/22 07:14:36;;;;;;;3.20;1.80;;;;;;;19.89;38.42;96944.07;110139;1250;59828;-73
2022/05/22 07:17:13;;;;;;;1.50;1.40;;;;;;;20.04;37.45;96936.11;109947;1250;71460;-70
2022/05/22 07:20:03;;;;;;;3.40;1.60;;;;;;;20.05;37.31;96937.69;109847;1250;68692;-72
2022/05/22 07:22:44;;;;;;;2.90;1.60;;;;;;;19.94;37.45;96938.88;110122;1248;68684;-71
2022/05/22 07:25:28;;;;;;;3.30;1.40;;;;;;;19.79;37.96;96941.30;110096;1250;59680;-74
2022/05/22 07:28:12;;;;;;;2.40;1.40;;;;;;;19.83;37.78;96939.41;110118;1250;59743;-76
2022/05/22 07:31:17;;;;;;;1.90;1.40;;;;;;;20.80;36.48;96941.81;109593;1253;71566;-69
2022/05/22 07:34:09;;;;;;;;;;;;;;;20.89;35.20;96939.71;109776;1251;68588;-71
2022/05/22 07:37:13;;;;;;;2.20;1.60;;;;;;;20.77;35.41;96930.50;109386;1254;69506;-75
2022/05/22 07:40:17;;;;;;;2.40;1.60;;;;;;;21.12;34.55;96938.06;109497;1256;59674;-74
2022/05/22 07:43:13;;;;;;;4.90;1.50;;;;;;;20.93;34.84;96939.54;110161;1250;59676;-74
2022/05/22 07:46:03;;;;;;;3.40;1.40;;;;;;;21.70;33.45;96939.02;110125;1250;70779;-76
2022/05/22 07:48:46;;;;;;;1.20;1.10;;;;;;;22.42;32.44;96935.33;109845;1250;68406;-78
2022/05/22 07:51:30;;;;;;;2.10;1.40;;;;;;;22.10;32.02;96928.58;109915;1249;69540;-76
2022/05/22 07:54:17;;;;;;;2.80;1.40;;;;;;;22.74;32.08;96933.90;110149;1250;59672;-76
2022/05/22 07:57:24;;;;;;;1.60;1.40;;;;;;;23.23;30.75;96930.86;110134;1250;59752;-76
2022/05/22 08:00:20;;;;;;;2.00;1.30;;;;;;;22.34;31.66;96929.95;109886;1250;70797;-75
2022/05/22 08:02:53;;;;;;;1.50;1.10;;;;;;;22.46;31.64;96930.03;110034;1251;68615;-75
2022/05/22 08:05:23;;;;;;;3.10;1.20;;;;;;;22.63;31.36;96928.55;109917;1251;69546;-76
2022/05/22 08:07:58;;;;;;;2.10;1.20;;;;;;;22.64;29.73;96923.59;109832;1251;59778;-75
2022/05/22 08:10:45;;;;;;;1.50;1.10;;;;;;;23.01;30.43;96921.52;109835;1253;59651;-73
2022/05/22 08:13:19;;;;;;;2.00;1.40;;;;;;;23.20;29.71;96919.34;109824;1251;71648;-73
2022/05/22 08:15:48;;;;;;;1.40;1.10;;;;;;;23.05;30.01;96919.14;109924;1250;68579;-74
2022/05/22 08:18:30;;;;;;;3.20;1.20;;;;;;;23.20;30.26;96917.70;109943;1250;69475;-72
2022/05/22 08:20:59;;;;;;;2.40;1.30;;;;;;;22.50;30.74;96911.79;109874;1250;59749;-72
2022/05/22 08:23:28;;;;;;;1.90;1.30;;;;;;;22.69;30.92;96916.39;109795;1251;59741;-75
2022/05/22 08:26:02;;;;;;;2.60;1.30;;;;;;;22.80;30.86;96911.94;109853;1251;72161;-71
2022/05/22 08:28:33;;;;;;;1.90;0.90;;;;;;;23.19;30.89;96909.63;109937;1251;68029;-71
2022/05/22 08:31:03;;;;;;;1.50;1.20;;;;;;;22.98;30.39;96913.34;109837;1253;68653;-72
2022/05/22 08:33:34;;;;;;;1.30;0.90;;;;;;;23.15;30.21;96906.73;109783;1251;59756;-73
2022/05/22 08:36:04;;;;;;;2.60;1.40;;;;;;;23.48;29.83;96909.67;110056;1251;59673;-75
2022/05/22 08:38:40;;;;;;;2.20;1.20;;;;;;;23.52;29.18;96911.04;109867;1251;72355;-69
2022/05/22 08:41:18;;;;;;;1.50;1.00;;;;;;;23.43;28.39;96910.79;109965;1250;68455;-74
2022/05/22 08:44:30;;;;;;;3.30;1.40;;;;;;;23.04;29.21;96911.83;109964;1251;69413;-73
2022/05/22 08:47:07;;;;;;;2.00;1.00;;;;;;;22.21;30.89;96904.56;109387;1257;59712;-74
2022/05/22 08:49:54;;;;;;;1.30;1.10;;;;;;;22.69;30.98;96920.58;109485;1257;59789;-73
2022/05/22 08:52:51;;;;;;;2.00;1.20;;;;;;;22.99;30.28;96918.48;109434;1257;72274;-74
2022/05/22 09:01:46;;;;;;;1.40;1.10;;;;;;;23.10;29.76;96907.70;109478;1256;59760;-70
2022/05/22 09:04:35;;;;;;;1.90;1.00;;;;;;;23.72;29.04;96907.08;108854;1262;59845;-71
2022/05/22 09:07:22;;;;;;;1.10;0.90;;;;;;;23.26;29.61;96915.16;108932;1262;70898;-69
2022/05/22 09:10:00;;;;;;;1.70;0.90;;;;;;;23.29;29.49;96907.45;108927;1262;68400;-74
2022/05/22 09:12:44;;;;;;;2.10;1.40;;;;;;;23.36;29.11;96909.39;108938;1261;69543;-71
2022/05/22 09:15:15;;;;;;;1.90;1.10;;;;;;;23.25;29.06;96908.06;108924;1261;59687;-72
2022/05/22 09:18:04;;;;;;;2.10;1.20;;;;;;;23.36;28.96;96908.61;108937;1262;59726;-76
2022/05/22 09:21:18;;;;;;;2.80;1.30;;;;;;;22.49;29.04;96903.30;108912;1260;71536;-78
2022/05/22 09:23:57;;;;;;;1.50;1.40;;;;;;;20.80;31.93;96895.96;108972;1260;68857;-71
2022/05/22 09:26:44;;;;;;;;;;;;;;;21.21;31.66;96905.77;109362;1257;69404;-74
2022/05/22 09:29:19;;;;;;;1.90;1.20;;;;;;;21.80;31.41;96902.48;109373;1257;59755;-74
2022/05/22 09:32:10;;;;;;;2.90;1.50;;;;;;;22.50;29.79;96897.71;109385;1256;59806;-74
2022/05/22 09:34:59;;;;;;;2.40;1.30;;;;;;;22.49;30.10;96893.95;109380;1257;72240;-77
2022/05/22 09:37:44;;;;;;;;;;;;;;;22.09;30.78;96903.04;109402;1257;68658;-73
2022/05/22 09:40:21;;;;;;;2.50;1.40;;;;;;;21.38;31.68;96899.81;109341;1257;69539;-76
2022/05/22 09:43:07;;;;;;;3.70;1.40;;;;;;;20.63;33.24;96903.90;109888;1250;59733;-72
2022/05/22 09:46:13;;;;;;;1.70;1.20;;;;;;;21.11;32.35;96900.41;109874;1250;59721;-77
2022/05/22 09:49:04;;;;;;;1.90;1.00;;;;;;;20.64;32.68;96899.00;110023;1251;70859;-77
2022/05/22 09:52:09;;;;;;;2.40;1.30;;;;;;;19.97;32.61;96895.16;109948;1251;67818;-76
2022/05/22 09:54:59;;;;;;;2.30;1.10;;;;;;;20.02;33.49;96891.92;109987;1249;69499;-76
2022/05/22 09:57:34;;;;;;;2.60;1.20;;;;;;;20.57;33.07;96888.55;109959;1250;59690;-74
2022/05/22 10:00:07;;;;;;;1.80;1.10;;;;;;;20.86;31.91;96882.60;109966;1251;59881;-78
2022/05/22 10:03:08;;;;;;;1.00;1.00;;;;;;;21.12;32.04;96887.34;109978;1249;70670;-77
2022/05/22 10:06:04;;;;;;;1.40;0.80;;;;;;;21.19;31.54;96889.12;109954;1250;68693;-76
2022/05/22 10:08:46;;;;;;;2.60;1.30;;;;;;;21.12;32.09;96892.33;109987;1251;68679;-76
2022/05/22 10:11:20;;;;;;;2.50;1.20;;;;;;;21.40;30.93;96882.16;109981;1251;59697;-76
2022/05/22 10:13:59;;;;;;;1.90;0.90;;;;;;;21.56;31.13;96879.81;109977;1251;59702;-76
2022/05/22 10:17:08;;;;;;;2.50;1.30;;;;;;;21.54;30.63;96877.16;110055;1251;71535;-72
2022/05/22 10:20:06;;;;;;;1.20;1.10;;;;;;;21.84;30.02;96871.43;109957;1251;67849;-74
2022/05/22 10:22:56;;;;;;;2.70;1.80;;;;;;;22.23;30.39;96871.98;109979;1251;69054;-71
2022/05/22 10:25:40;;;;;;;3.20;1.90;;;;;;;22.55;29.73;96871.67;109970;1251;59674;-75
2022/05/22 10:28:16;;;;;;;2.80;1.70;;;;;;;22.65;29.62;96876.58;109929;1251;59702;-72
2022/05/22 10:30:56;;;;;;;2.10;1.60;;;;;;;22.49;29.47;96875.63;109902;1253;71569;-73
2022/05/22 10:34:04;;;;;;;3.30;1.40;;;;;;;21.53;30.78;96876.84;109961;1251;68208;-72
2022/05/22 10:36:39;;;;;;;2.70;1.60;;;;;;;21.78;31.17;96875.90;109919;1250;70046;-71
2022/05/22 10:39:11;;;;;;;1.50;1.30;;;;;;;21.17;30.94;96867.66;109973;1251;59687;-72
2022/05/22 10:45:02;;;;;;;1.80;1.60;;;;;;;21.50;31.41;96870.47;109972;1251;72253;-69
2022/05/22 10:47:34;;;;;;;2.10;1.20;;;;;;;21.75;31.13;96862.63;109951;1251;67781;-70
2022/05/22 10:54:01;;;;;;;2.50;1.80;;;;;;;22.46;30.96;96866.97;109931;1251;59770;-75
2022/05/22 10:56:35;;;;;;;1.80;1.50;;;;;;;22.68;30.11;96863.32;109813;1251;59688;-71
2022/05/22 10:59:07;;;;;;;13.10;10.40;;;;;;;22.46;29.97;96867.55;109996;1251;72622;-69
2022/05/22 11:01:39;;;;;;;8.30;6.50;;;;;;;22.32;29.72;96869.91;109901;1251;68709;-76
2022/05/22 11:04:11;;;;;;;16.10;11.20;;;;;;;22.18;30.02;96867.77;109774;1251;69548;-75
2022/05/22 11:06:59;;;;;;;21.90;14.70;;;;;;;22.12;30.32;96871.23;109807;1251;59708;-72
2022/05/22 11:09:34;;;;;;;7.90;4.40;;;;;;;22.54;30.10;96870.89;109770;1251;59621;-71
2022/05/22 11:12:13;;;;;;;10.80;8.10;;;;;;;22.49;30.46;96869.45;109864;1251;71155;-74
2022/05/22 11:14:42;;;;;;;3.60;1.80;;;;;;;22.40;29.97;96875.27;110029;1251;68002;-75
2022/05/22 11:17:22;;;;;;;7.90;6.60;;;;;;;21.91;30.54;96872.13;109921;1251;68655;-78
2022/05/22 11:19:57;;;;;;;3.00;1.40;;;;;;;21.80;31.05;96877.84;109939;1251;59677;-71
2022/05/22 11:22:38;;;;;;;4.60;3.60;;;;;;;21.50;31.29;96872.23;109928;1251;59677;-74
2022/05/22 11:25:42;;;;;;;1.80;1.10;;;;;;;21.41;30.51;96864.27;110129;1250;70833;-75
2022/05/22 11:28:32;;;;;;;6.20;4.00;;;;;;;21.32;31.64;96860.50;110148;1250;68569;-76
2022/05/22 11:31:38;;;;;;;2.50;1.20;;;;;;;21.87;31.09;96851.72;110152;1250;68909;-74
2022/05/22 11:34:21;;;;;;;2.60;1.40;;;;;;;22.52;30.14;96849.50;110134;1250;59691;-72
2022/05/22 11:37:22;;;;;;;8.20;5.20;;;;;;;22.29;30.72;96842.46;110151;1249;59682;-73
2022/05/22 11:40:02;;;;;;;4.90;2.70;;;;;;;22.58;30.30;96845.54;109893;1250;70897;-77
2022/05/22 11:42:34;;;;;;;2.30;1.30;;;;;;;22.53;29.61;96846.97;109907;1250;69007;-79
2022/05/22 11:45:19;;;;;;;3.40;1.40;;;;;;;22.42;29.72;96843.81;110131;1249;68708;-76
2022/05/22 11:48:26;;;;;;;2.00;1.30;;;;;;;22.10;30.77;96842.92;110144;1250;59690;-77
2022/05/22 11:50:55;;;;;;;2.80;1.50;;;;;;;22.02;31.42;96841.66;110155;1250;59638;-76
2022/05/22 11:53:33;;;;;;;2.60;1.40;;;;;;;22.18;31.01;96842.82;109907;1251;70752;-77
2022/05/22 11:56:16;;;;;;;1.70;1.30;;;;;;;22.21;30.30;96839.00;110148;1250;68698;-76
2022/05/22 11:58:52;;;;;;;3.40;1.30;;;;;;;22.44;30.95;96839.27;109785;1250;68505;-77
2022/05/22 12:01:32;;;;;;;2.30;1.10;;;;;;;22.84;30.62;96837.54;110145;1249;59671;-74
2022/05/22 12:04:22;;;;;;;2.10;1.50;;;;;;;23.03;30.23;96837.14;110144;1250;59787;-75
2022/05/22 12:07:32;;;;;;;2.00;1.50;;;;;;;23.27;29.86;96830.87;110136;1250;72610;-74
2022/05/22 12:10:32;;;;;;;2.70;1.50;;;;;;;23.67;30.34;96825.61;109760;1251;69013;-78
2022/05/22 12:13:27;;;;;;;1.50;1.20;;;;;;;23.42;29.32;96830.63;109937;1250;68645;-72
2022/05/22 12:16:05;;;;;;;2.70;1.30;;;;;;;22.98;29.81;96838.61;110151;1250;59754;-75
2022/05/22 12:18:46;;;;;;;2.00;1.50;;;;;;;23.10;29.98;96832.39;110223;1248;59684;-78
2022/05/22 12:21:24;;;;;;;3.20;1.30;;;;;;;23.26;29.49;96824.38;110067;1249;71577;-78
2022/05/22 12:24:06;;;;;;;3.50;1.40;;;;;;;23.31;29.08;96816.75;110065;1250;67831;-76
2022/05/22 12:26:37;;;;;;;2.40;1.50;;;;;;;23.28;29.56;96815.69;109870;1251;69501;-68
2022/05/22 12:29:16;;;;;;;2.10;1.20;;;;;;;23.38;29.28;96806.38;109855;1251;59615;-71
2022/05/22 12:32:16;;;;;;;2.10;1.50;;;;;;;23.34;29.22;96796.93;109980;1250;60088;-69
2022/05/22 12:34:50;;;;;;;2.00;1.30;;;;;;;23.05;29.68;96803.44;109947;1251;71115;-74
2022/05/22 12:37:38;;;;;;;2.60;1.20;;;;;;;23.07;29.83;96795.31;109886;1250;68314;-72
2022/05/22 12:40:10;;;;;;;2.00;1.60;;;;;;;23.30;30.07;96797.63;109918;1250;69496;-71
2022/05/22 12:42:48;;;;;;;1.80;1.30;;;;;;;23.34;29.93;96787.02;109779;1251;59699;-70
2022/05/22 12:45:18;;;;;;;1.80;1.20;;;;;;;23.33;29.47;96789.39;109787;1250;59825;-72
2022/05/22 12:47:50;;;;;;;2.50;1.20;;;;;;;23.39;29.43;96782.16;109897;1251;71979;-68